createdAt,value
2023-11-17T00:02:22.197Z,5.77
2023-11-17T00:04:49.282Z,5.50
2023-11-17T00:07:16.173Z,5.70
2023-11-17T00:09:42.998Z,5.40
2023-11-17T00:12:10.333Z,5.50
2023-11-17T00:14:37.784Z,5.50
2023-11-17T00:17:05.084Z,5.43
2023-11-17T00:19:32.144Z,5.13
2023-11-17T00:21:58.925Z,5.53
2023-11-17T00:24:25.929Z,5.47
2023-11-17T00:26:52.681Z,6.43
2023-11-17T00:29:20.506Z,6.23
2023-11-17T00:31:47.291Z,6.83
2023-11-17T00:34:14.080Z,6.80
2023-11-17T00:36:44.997Z,7.27
2023-11-17T00:39:12.401Z,6.70
2023-11-17T00:41:39.270Z,7.00
2023-11-17T00:44:06.445Z,6.40
2023-11-17T00:46:34.066Z,6.07
2023-11-17T00:49:04.920Z,5.43
2023-11-17T00:51:32.195Z,7.20
2023-11-17T00:54:01.887Z,6.07
2023-11-17T00:56:28.728Z,6.27
2023-11-17T00:58:55.623Z,5.87
2023-11-17T01:01:22.490Z,5.43
2023-11-17T01:03:49.412Z,6.27
2023-11-17T01:06:16.493Z,6.00
2023-11-17T01:08:43.269Z,6.40
2023-11-17T01:11:13.450Z,5.87
2023-11-17T01:13:41.133Z,6.40
2023-11-17T01:16:08.121Z,6.90
2023-11-17T01:18:35.257Z,6.37
2023-11-17T01:21:02.124Z,6.60
2023-11-17T01:23:29.806Z,6.80
2023-11-17T01:25:57.156Z,6.50
2023-11-17T01:28:24.822Z,7.23
2023-11-17T01:30:51.740Z,7.33
2023-11-17T01:33:18.710Z,7.37
2023-11-17T01:35:45.755Z,7.47
2023-11-17T01:38:15.371Z,7.63
2023-11-17T01:40:42.352Z,7.30
2023-11-17T01:43:13.077Z,8.23
2023-11-17T01:45:44.215Z,8.53
2023-11-17T01:48:11.570Z,8.00
2023-11-17T01:50:38.581Z,8.30
2023-11-17T01:53:08.641Z,7.30
2023-11-17T01:55:36.025Z,7.60
2023-11-17T01:58:03.261Z,6.73
2023-11-17T02:00:30.074Z,7.63
2023-11-17T02:02:57.117Z,7.50
2023-11-17T02:05:25.970Z,8.00
2023-11-17T02:08:05.847Z,7.67
2023-11-17T02:10:39.785Z,7.10
2023-11-17T02:13:41.328Z,6.97
2023-11-17T02:16:13.041Z,6.80
2023-11-17T02:18:41.883Z,6.73
2023-11-17T02:21:08.896Z,6.83
2023-11-17T02:23:38.340Z,6.50
2023-11-17T02:26:18.885Z,6.20
2023-11-17T02:29:01.214Z,6.70
2023-11-17T02:31:30.935Z,6.20
2023-11-17T02:34:05.109Z,5.60
2023-11-17T02:36:34.335Z,6.37
2023-11-17T02:39:26.979Z,6.10
2023-11-17T02:42:01.350Z,6.83
2023-11-17T02:44:35.220Z,6.40
2023-11-17T02:47:07.148Z,6.00
2023-11-17T02:49:56.988Z,6.93
2023-11-17T02:52:27.822Z,5.63
2023-11-17T02:54:55.799Z,6.73
2023-11-17T02:57:26.547Z,5.70
2023-11-17T02:59:54.914Z,6.67
2023-11-17T03:02:21.736Z,6.23
2023-11-17T03:04:54.081Z,6.27
2023-11-17T03:07:21.726Z,6.40
2023-11-17T03:09:53.577Z,6.33
2023-11-17T03:12:21.204Z,6.53
2023-11-17T03:14:48.014Z,6.30
2023-11-17T03:17:14.836Z,6.40
2023-11-17T03:19:44.440Z,6.50
2023-11-17T03:22:15.299Z,6.70
2023-11-17T03:24:42.975Z,6.87
2023-11-17T03:27:09.821Z,8.23
2023-11-17T03:29:36.608Z,8.33
2023-11-17T03:32:03.484Z,6.77
2023-11-17T03:34:31.852Z,6.40
2023-11-17T03:37:01.759Z,6.57
2023-11-17T03:39:30.150Z,6.93
2023-11-17T03:41:57.684Z,7.83
2023-11-17T03:44:29.580Z,8.33
2023-11-17T03:46:57.161Z,7.57
2023-11-17T03:49:24.216Z,6.90
2023-11-17T03:51:52.314Z,6.37
2023-11-17T03:54:23.030Z,6.80
2023-11-17T03:56:50.581Z,6.60
2023-11-17T03:59:18.194Z,7.17
2023-11-17T04:01:45.343Z,7.47
2023-11-17T04:04:12.823Z,6.57
2023-11-17T04:06:39.590Z,6.27
2023-11-17T04:09:06.800Z,7.40
2023-11-17T04:11:33.705Z,7.00
2023-11-17T04:14:00.583Z,6.67
2023-11-17T04:16:27.646Z,6.47
2023-11-17T04:18:56.097Z,6.53
2023-11-17T04:21:24.232Z,6.33
2023-11-17T04:23:51.017Z,6.53
2023-11-17T04:26:17.805Z,6.77
2023-11-17T04:28:45.456Z,6.87
2023-11-17T04:31:12.243Z,6.67
2023-11-17T04:33:39.121Z,6.17
2023-11-17T04:36:06.196Z,6.57
2023-11-17T04:38:33.197Z,6.77
2023-11-17T04:41:00.045Z,6.57
2023-11-17T04:43:27.221Z,7.00
2023-11-17T04:45:55.622Z,6.80
2023-11-17T04:48:22.528Z,7.33
2023-11-17T04:50:49.446Z,7.97
2023-11-17T04:53:16.306Z,7.97
2023-11-17T04:55:47.129Z,8.40
2023-11-17T04:58:13.941Z,8.17
2023-11-17T05:00:43.008Z,7.83
2023-11-17T05:03:09.879Z,8.77
2023-11-17T05:05:36.696Z,8.53
2023-11-17T05:08:03.527Z,8.40
2023-11-17T05:10:30.722Z,8.30
2023-11-17T05:12:57.565Z,8.93
2023-11-17T05:15:25.765Z,8.43
2023-11-17T05:17:52.609Z,8.57
2023-11-17T05:20:24.324Z,7.60
2023-11-17T05:22:53.743Z,7.43
2023-11-17T05:25:20.793Z,7.77
2023-11-17T05:27:48.311Z,8.70
2023-11-17T05:30:19.768Z,8.20
2023-11-17T05:32:47.616Z,7.70
2023-11-17T05:35:14.647Z,7.83
2023-11-17T05:37:41.498Z,8.73
2023-11-17T05:40:09.076Z,8.20
2023-11-17T05:42:36.190Z,8.00
2023-11-17T05:45:03.397Z,8.20
2023-11-17T05:47:30.194Z,8.30
2023-11-17T05:49:57.167Z,7.47
2023-11-17T05:52:24.553Z,7.97
2023-11-17T05:54:52.770Z,8.40
2023-11-17T05:57:23.475Z,8.43
2023-11-17T05:59:54.619Z,8.00
2023-11-17T06:02:22.596Z,9.07
2023-11-17T06:04:50.330Z,7.93
2023-11-17T06:07:17.311Z,7.73
2023-11-17T06:09:44.980Z,8.23
2023-11-17T06:12:11.787Z,7.63
2023-11-17T06:14:38.687Z,7.97
2023-11-17T06:17:05.898Z,8.03
2023-11-17T06:19:34.537Z,8.20
2023-11-17T06:22:01.434Z,7.50
2023-11-17T06:24:28.316Z,7.53
2023-11-17T06:26:56.001Z,8.00
2023-11-17T06:29:26.198Z,7.90
2023-11-17T06:31:55.835Z,8.40
2023-11-17T06:34:23.270Z,7.63
2023-11-17T06:36:53.366Z,8.03
2023-11-17T06:39:23.115Z,8.53
2023-11-17T06:41:51.552Z,7.30
2023-11-17T06:44:20.012Z,8.33
2023-11-17T06:46:49.819Z,8.57
2023-11-17T06:49:21.136Z,8.27
2023-11-17T06:51:58.496Z,8.60
2023-11-17T06:54:26.284Z,9.27
2023-11-17T06:56:53.307Z,9.30
2023-11-17T06:59:23.574Z,9.13
2023-11-17T07:01:52.951Z,8.60
2023-11-17T07:04:20.729Z,8.97
2023-11-17T07:06:49.396Z,9.23
2023-11-17T07:09:21.390Z,9.10
2023-11-17T07:11:51.364Z,9.87
2023-11-17T07:14:21.372Z,10.20
2023-11-17T07:16:51.935Z,9.77
2023-11-17T07:19:20.037Z,10.37
2023-11-17T07:21:48.428Z,10.30
2023-11-17T07:24:19.847Z,10.13
2023-11-17T07:26:47.872Z,9.60
2023-11-17T07:29:15.642Z,9.53
2023-11-17T07:31:47.071Z,9.90
2023-11-17T07:34:18.647Z,10.00
2023-11-17T07:36:49.469Z,9.90
2023-11-17T07:39:25.025Z,10.60
2023-11-17T07:41:51.995Z,10.07
2023-11-17T07:44:18.824Z,9.90
2023-11-17T07:46:48.999Z,10.90
2023-11-17T07:49:19.609Z,9.77
2023-11-17T07:51:49.362Z,10.03
2023-11-17T07:54:18.564Z,10.40
2023-11-17T07:56:48.471Z,10.37
2023-11-17T07:59:16.028Z,11.37
2023-11-17T08:01:42.792Z,10.53
2023-11-17T08:04:10.231Z,11.03
2023-11-17T08:06:38.163Z,10.67
2023-11-17T08:09:10.971Z,10.53
2023-11-17T08:11:45.948Z,10.53
2023-11-17T08:14:13.005Z,11.43
2023-11-17T08:16:39.849Z,11.73
2023-11-17T08:19:18.495Z,12.43
2023-11-17T08:21:53.053Z,11.73
2023-11-17T08:24:22.291Z,11.83
2023-11-17T08:26:51.949Z,12.33
2023-11-17T08:29:22.691Z,12.07
2023-11-17T08:31:50.887Z,11.77
2023-11-17T08:34:18.094Z,12.83
2023-11-17T08:36:45.024Z,11.70
2023-11-17T08:39:22.938Z,12.73
2023-11-17T08:41:49.830Z,12.80
2023-11-17T08:44:17.199Z,12.27
2023-11-17T08:46:48.549Z,13.37
2023-11-17T08:49:15.544Z,13.87
2023-11-17T08:51:43.170Z,13.63
2023-11-17T08:54:10.376Z,12.50
2023-11-17T08:56:37.788Z,12.83
2023-11-17T08:59:04.706Z,15.00
2023-11-17T09:01:31.618Z,13.80
2023-11-17T09:04:01.852Z,13.83
2023-11-17T09:06:28.929Z,13.23
2023-11-17T09:09:24.033Z,13.70
2023-11-17T09:12:04.937Z,14.23
2023-11-17T09:14:46.509Z,13.77
2023-11-17T09:17:13.750Z,14.57
2023-11-17T09:19:43.290Z,14.30
2023-11-17T09:22:10.450Z,14.83
2023-11-17T09:24:37.271Z,15.10
2023-11-17T09:27:05.411Z,15.20
2023-11-17T09:29:35.121Z,14.40
2023-11-17T09:32:02.766Z,14.40
2023-11-17T09:34:29.999Z,13.80
2023-11-17T09:36:56.818Z,13.37
2023-11-17T09:39:23.682Z,13.83
2023-11-17T09:41:52.325Z,14.53
2023-11-17T09:44:19.968Z,15.10
2023-11-17T09:46:54.208Z,13.93
2023-11-17T09:49:24.053Z,14.27
2023-11-17T09:51:52.912Z,15.03
2023-11-17T09:54:25.678Z,13.67
2023-11-17T09:56:55.008Z,14.33
2023-11-17T09:59:23.807Z,14.37
2023-11-17T10:01:50.842Z,13.73
2023-11-17T10:04:18.480Z,14.73
2023-11-17T10:06:45.726Z,14.30
2023-11-17T10:09:14.951Z,15.27
2023-11-17T10:11:43.261Z,14.83
2023-11-17T10:14:12.434Z,14.10
2023-11-17T10:16:39.534Z,14.50
2023-11-17T10:19:07.176Z,14.10
2023-11-17T10:21:35.441Z,14.77
2023-11-17T10:24:02.294Z,14.37
2023-11-17T10:26:34.444Z,14.07
2023-11-17T10:29:02.356Z,14.80
2023-11-17T10:31:29.491Z,14.93
2023-11-17T10:33:57.336Z,14.17
2023-11-17T10:36:25.632Z,14.50
2023-11-17T10:39:05.184Z,14.47
2023-11-17T10:41:32.441Z,13.80
2023-11-17T10:44:00.432Z,15.47
2023-11-17T10:46:32.535Z,15.47
2023-11-17T10:49:06.528Z,15.07
2023-11-17T10:51:54.849Z,14.77
2023-11-17T10:54:21.623Z,15.50
2023-11-17T10:56:49.625Z,15.33
2023-11-17T10:59:22.872Z,16.00
2023-11-17T11:01:53.205Z,14.77
2023-11-17T11:04:27.309Z,16.23
2023-11-17T11:06:59.055Z,16.37
2023-11-17T11:09:34.326Z,16.10
2023-11-17T11:12:01.380Z,16.60
2023-11-17T11:14:55.541Z,15.70
2023-11-17T11:17:22.924Z,14.93
2023-11-17T11:19:58.656Z,14.93
2023-11-17T11:22:37.836Z,15.73
2023-11-17T11:25:07.237Z,15.07
2023-11-17T11:27:34.974Z,15.60
2023-11-17T11:30:01.894Z,14.80
2023-11-17T11:32:29.599Z,16.27
2023-11-17T11:34:58.786Z,15.87
2023-11-17T11:37:30.217Z,16.10
2023-11-17T11:39:57.029Z,17.07
2023-11-17T11:42:24.417Z,16.17
2023-11-17T11:44:52.736Z,16.17
2023-11-17T11:47:20.311Z,16.50
2023-11-17T11:49:47.723Z,15.90
2023-11-17T11:52:23.754Z,17.57
2023-11-17T11:54:50.676Z,16.10
2023-11-17T11:57:29.712Z,16.73
2023-11-17T12:00:16.450Z,16.20
2023-11-17T12:03:00.087Z,17.43
2023-11-17T12:05:31.897Z,16.63
2023-11-17T12:08:23.867Z,16.57
2023-11-17T12:10:54.708Z,16.80
2023-11-17T12:13:58.113Z,16.90
2023-11-17T12:16:30.520Z,17.00
2023-11-17T12:19:01.567Z,17.23
2023-11-17T12:21:28.459Z,16.13
2023-11-17T12:23:57.056Z,16.03
2023-11-17T12:26:28.571Z,17.03
2023-11-17T12:28:56.703Z,17.20
2023-11-17T12:31:24.468Z,16.00
2023-11-17T12:33:52.489Z,17.90
2023-11-17T12:36:20.776Z,18.60
2023-11-17T12:38:56.476Z,20.70
2023-11-17T12:41:29.730Z,19.90
2023-11-17T12:43:58.726Z,19.67
2023-11-17T12:46:29.087Z,20.63
2023-11-17T12:48:56.216Z,19.33
2023-11-17T12:51:33.083Z,22.13
2023-11-17T12:54:02.501Z,20.87
2023-11-17T12:56:29.937Z,19.00
2023-11-17T12:58:56.770Z,18.80
2023-11-17T13:01:26.197Z,20.27
2023-11-17T13:04:04.067Z,22.43
2023-11-17T13:06:32.516Z,24.27
2023-11-17T13:08:59.790Z,23.57
2023-11-17T13:11:35.554Z,24.30
2023-11-17T13:14:02.655Z,24.63
2023-11-17T13:16:31.011Z,24.23
2023-11-17T13:18:58.102Z,23.20
2023-11-17T13:21:26.482Z,22.93
2023-11-17T13:23:53.594Z,23.53
2023-11-17T13:26:22.424Z,22.80
2023-11-17T13:28:50.172Z,21.90
2023-11-17T13:31:21.191Z,21.20
2023-11-17T13:33:55.607Z,20.53
2023-11-17T13:36:32.504Z,19.63
2023-11-17T13:39:20.307Z,19.43
2023-11-17T13:41:49.200Z,19.67
2023-11-17T13:44:36.253Z,20.73
2023-11-17T13:47:06.909Z,19.57
2023-11-17T13:49:36.289Z,20.00
2023-11-17T13:52:04.412Z,20.83
2023-11-17T13:54:32.113Z,21.23
2023-11-17T13:56:59.151Z,21.40
2023-11-17T13:59:27.546Z,20.17
2023-11-17T14:01:58.954Z,20.37
2023-11-17T14:04:34.152Z,19.20
2023-11-17T14:07:03.019Z,18.93
2023-11-17T14:09:32.557Z,18.43
2023-11-17T14:12:01.107Z,20.27
2023-11-17T14:14:31.582Z,18.60
2023-11-17T14:16:59.243Z,20.43
2023-11-17T14:19:28.967Z,20.57
2023-11-17T14:21:56.347Z,20.03
2023-11-17T14:24:23.176Z,18.87
2023-11-17T14:26:56.585Z,18.40
2023-11-17T14:29:29.484Z,19.63
2023-11-17T14:31:56.410Z,17.97
2023-11-17T14:34:23.201Z,19.07
2023-11-17T14:36:54.414Z,18.67
2023-11-17T14:39:30.562Z,19.20
2023-11-17T14:41:58.337Z,18.27
2023-11-17T14:44:27.931Z,18.50
2023-11-17T14:46:58.313Z,19.10
2023-11-17T14:49:28.774Z,19.30
2023-11-17T14:52:05.289Z,17.93
2023-11-17T14:54:32.214Z,16.37
2023-11-17T14:57:02.324Z,19.30
2023-11-17T14:59:29.211Z,18.30
2023-11-17T15:01:58.158Z,20.10
2023-11-17T15:04:29.943Z,18.40
2023-11-17T15:07:01.008Z,18.40
2023-11-17T15:09:28.195Z,18.03
2023-11-17T15:11:55.347Z,17.47
2023-11-17T15:14:28.501Z,18.00
2023-11-17T15:16:55.832Z,17.77
2023-11-17T15:19:23.655Z,16.63
2023-11-17T15:21:50.816Z,16.87
2023-11-17T15:24:24.210Z,16.93
2023-11-17T15:26:58.669Z,17.33
2023-11-17T15:29:31.691Z,16.53
2023-11-17T15:32:05.404Z,16.30
2023-11-17T15:34:32.381Z,16.73
2023-11-17T15:37:00.323Z,15.87
2023-11-17T15:39:32.297Z,16.70
2023-11-17T15:41:59.196Z,16.53
2023-11-17T15:44:26.242Z,16.63
2023-11-17T15:46:54.596Z,18.23
2023-11-17T15:49:22.955Z,17.57
2023-11-17T15:51:51.739Z,17.67
2023-11-17T15:54:18.701Z,15.90
2023-11-17T15:56:47.904Z,17.00
2023-11-17T15:59:15.250Z,16.37
2023-11-17T16:01:44.454Z,15.93
2023-11-17T16:04:11.634Z,17.23
2023-11-17T16:06:41.471Z,17.17
2023-11-17T16:09:11.902Z,17.73
2023-11-17T16:11:41.582Z,17.30
2023-11-17T16:14:13.800Z,17.17
2023-11-17T16:16:41.272Z,16.93
2023-11-17T16:19:08.058Z,16.50
2023-11-17T16:21:36.665Z,15.50
2023-11-17T16:24:06.465Z,16.40
2023-11-17T16:26:34.731Z,16.40
2023-11-17T16:29:02.278Z,18.60
2023-11-17T16:31:29.525Z,18.73
2023-11-17T16:33:56.537Z,17.63
2023-11-17T16:36:25.786Z,18.00
2023-11-17T16:38:52.989Z,17.37
2023-11-17T16:41:21.968Z,17.23
2023-11-17T16:43:51.965Z,16.77
2023-11-17T16:46:22.102Z,16.93
2023-11-17T16:48:51.828Z,17.07
2023-11-17T16:51:19.228Z,17.47
2023-11-17T16:53:47.645Z,17.83
2023-11-17T16:56:16.021Z,16.27
2023-11-17T16:58:43.419Z,17.90
2023-11-17T17:01:10.969Z,16.87
2023-11-17T17:03:38.522Z,16.47
2023-11-17T17:06:05.991Z,16.53
2023-11-17T17:08:36.504Z,18.27
2023-11-17T17:11:06.377Z,16.57
2023-11-17T17:13:35.448Z,17.17
2023-11-17T17:16:02.772Z,16.70
2023-11-17T17:18:31.134Z,18.73
2023-11-17T17:20:58.558Z,16.87
2023-11-17T17:23:25.703Z,17.70
2023-11-17T17:25:56.275Z,18.47
2023-11-17T17:28:23.491Z,17.17
2023-11-17T17:30:50.423Z,17.37
2023-11-17T17:33:17.287Z,18.73
2023-11-17T17:35:45.247Z,18.77
2023-11-17T17:38:13.658Z,18.90
2023-11-17T17:40:41.551Z,18.30
2023-11-17T17:43:11.202Z,17.93
2023-11-17T17:45:38.825Z,18.00
2023-11-17T17:48:09.484Z,17.83
2023-11-17T17:50:37.708Z,18.10
2023-11-17T17:53:04.782Z,18.10
2023-11-17T17:55:31.740Z,20.77
2023-11-17T17:57:58.775Z,19.20
2023-11-17T18:00:27.971Z,18.87
2023-11-17T18:03:02.110Z,18.73
2023-11-17T18:05:29.968Z,17.87
2023-11-17T18:07:56.982Z,17.87
2023-11-17T18:10:26.970Z,18.23
2023-11-17T18:12:54.092Z,17.43
2023-11-17T18:15:23.242Z,19.10
2023-11-17T18:17:53.193Z,17.67
2023-11-17T18:20:22.580Z,17.30
2023-11-17T18:22:50.885Z,18.83
2023-11-17T18:25:19.097Z,17.70
2023-11-17T18:27:50.213Z,18.00
2023-11-17T18:30:19.253Z,18.20
2023-11-17T18:32:46.734Z,18.53
2023-11-17T18:35:24.914Z,19.13
2023-11-17T18:37:52.722Z,18.73
2023-11-17T18:40:23.890Z,18.20
2023-11-17T18:42:54.050Z,17.50
2023-11-17T18:45:22.400Z,17.10
2023-11-17T18:47:53.346Z,17.90
2023-11-17T18:50:22.328Z,18.20
2023-11-17T18:52:50.158Z,17.70
2023-11-17T18:55:18.526Z,17.13
2023-11-17T18:57:45.834Z,18.13
2023-11-17T19:00:19.358Z,17.33
2023-11-17T19:02:50.643Z,17.20
2023-11-17T19:05:20.213Z,18.33
2023-11-17T19:07:49.519Z,17.83
2023-11-17T19:10:21.523Z,17.73
2023-11-17T19:12:52.923Z,17.13
2023-11-17T19:15:22.774Z,17.23
2023-11-17T19:17:50.022Z,17.60
2023-11-17T19:20:17.341Z,18.10
2023-11-17T19:22:45.667Z,17.47
2023-11-17T19:25:12.605Z,18.57
2023-11-17T19:27:41.286Z,18.63
2023-11-17T19:30:16.483Z,19.83
2023-11-17T19:32:49.230Z,18.63
2023-11-17T19:35:20.526Z,19.90
2023-11-17T19:37:48.179Z,19.87
2023-11-17T19:40:16.415Z,18.90
2023-11-17T19:42:45.381Z,18.27
2023-11-17T19:45:14.496Z,23.10
2023-11-17T19:47:42.046Z,25.43
2023-11-17T19:50:14.463Z,20.97
2023-11-17T19:52:44.815Z,19.43
2023-11-17T19:55:14.954Z,18.70
2023-11-17T19:57:41.856Z,19.00
2023-11-17T20:00:13.584Z,16.60
2023-11-17T20:02:43.055Z,16.53
2023-11-17T20:05:11.501Z,17.77
2023-11-17T20:07:41.926Z,18.00
2023-11-17T20:10:15.854Z,18.77
2023-11-17T20:12:42.685Z,19.17
2023-11-17T20:15:16.237Z,18.80
2023-11-17T20:17:55.012Z,19.30
2023-11-17T20:20:28.273Z,18.00
2023-11-17T20:22:57.106Z,18.60
2023-11-17T20:25:25.388Z,18.20
2023-11-17T20:27:53.949Z,17.67
2023-11-17T20:30:22.089Z,17.73
2023-11-17T20:32:51.118Z,17.00
2023-11-17T20:35:18.255Z,18.87
2023-11-17T20:37:45.238Z,19.67
2023-11-17T20:40:15.369Z,21.03
2023-11-17T20:42:44.352Z,18.30
2023-11-17T20:45:16.255Z,18.33
2023-11-17T20:47:48.565Z,17.17
2023-11-17T20:50:21.769Z,17.90
2023-11-17T20:52:53.759Z,16.70
2023-11-17T20:55:22.024Z,16.70
2023-11-17T20:57:51.120Z,16.73
2023-11-17T21:00:25.077Z,18.13
2023-11-17T21:02:53.994Z,17.80
2023-11-17T21:05:22.083Z,16.60
2023-11-17T21:07:49.788Z,16.40
2023-11-17T21:10:20.090Z,18.37
2023-11-17T21:12:50.434Z,17.47
2023-11-17T21:15:19.486Z,18.83
2023-11-17T21:17:47.823Z,17.13
2023-11-17T21:20:15.842Z,16.90
2023-11-17T21:22:43.063Z,16.80
2023-11-17T21:25:12.456Z,17.07
2023-11-17T21:27:43.082Z,17.17
2023-11-17T21:30:17.027Z,16.53
2023-11-17T21:32:50.910Z,17.30
2023-11-17T21:35:19.844Z,17.07
2023-11-17T21:37:53.412Z,17.10
2023-11-17T21:40:21.706Z,17.27
2023-11-17T21:42:49.697Z,17.10
2023-11-17T21:45:19.096Z,17.07
2023-11-17T21:47:46.555Z,15.67
2023-11-17T21:50:14.170Z,17.23
2023-11-17T21:52:41.162Z,16.00
2023-11-17T21:55:11.057Z,16.03
2023-11-17T21:57:42.061Z,15.73
2023-11-17T22:00:12.574Z,15.93
2023-11-17T22:02:46.708Z,15.87
2023-11-17T22:05:23.732Z,15.67
2023-11-17T22:07:51.158Z,16.03
2023-11-17T22:10:18.236Z,15.40
2023-11-17T22:12:51.371Z,15.37
2023-11-17T22:15:20.197Z,15.83
2023-11-17T22:17:48.532Z,15.37
2023-11-17T22:20:16.968Z,15.80
2023-11-17T22:22:44.791Z,16.23
2023-11-17T22:25:13.540Z,16.17
2023-11-17T22:27:41.599Z,16.30
2023-11-17T22:30:14.054Z,15.63
2023-11-17T22:32:45.632Z,15.60
2023-11-17T22:35:15.850Z,16.30
2023-11-17T22:37:43.920Z,15.43
2023-11-17T22:40:17.777Z,14.13
2023-11-17T22:42:46.083Z,15.70
2023-11-17T22:45:16.678Z,15.03
2023-11-17T22:47:46.071Z,13.90
2023-11-17T22:50:19.448Z,14.33
2023-11-17T22:52:46.992Z,15.00
2023-11-17T22:55:13.914Z,15.03
2023-11-17T22:57:41.298Z,14.57
2023-11-17T23:00:34.485Z,15.97
2023-11-17T23:03:04.777Z,14.77
2023-11-17T23:05:34.616Z,14.90
2023-11-17T23:08:02.741Z,13.67
2023-11-17T23:10:31.845Z,14.50
2023-11-17T23:12:59.358Z,14.30
2023-11-17T23:15:27.112Z,14.47
2023-11-17T23:17:55.617Z,14.73
2023-11-17T23:20:26.740Z,13.83
2023-11-17T23:22:55.936Z,14.57
2023-11-17T23:25:26.115Z,14.43
2023-11-17T23:27:53.248Z,13.27
2023-11-17T23:30:21.054Z,13.23
2023-11-17T23:32:48.065Z,14.33
2023-11-17T23:35:14.954Z,13.23
2023-11-17T23:37:41.801Z,13.93
2023-11-17T23:40:17.687Z,13.20
2023-11-17T23:42:49.959Z,13.03
2023-11-17T23:45:17.930Z,14.67
2023-11-17T23:47:45.093Z,14.27
2023-11-17T23:50:13.098Z,13.27
2023-11-17T23:52:40.283Z,12.30
2023-11-17T23:55:08.041Z,13.30
2023-11-17T23:57:34.783Z,13.97
